sensor_id;sensor_type;location;lat;lon;timestamp;P1;durP1;ratioP1;P2;durP2;ratioP2
36931;SDS011;22847;42.654;23.370;2024-03-23T00:55:58;8.85;;;5.25;;
36931;SDS011;22847;42.654;23.370;2024-03-23T00:58:24;9.50;;;6.10;;
36931;SDS011;22847;42.654;23.370;2024-03-23T01:00:50;10.85;;;6.35;;
36931;SDS011;22847;42.654;23.370;2024-03-23T01:03:15;9.57;;;5.85;;
36931;SDS011;22847;42.654;23.370;2024-03-23T01:05:41;11.05;;;5.97;;
36931;SDS011;22847;42.654;23.370;2024-03-23T01:08:06;10.45;;;5.85;;
36931;SDS011;22847;42.654;23.370;2024-03-23T01:10:32;12.93;;;6.55;;
36931;SDS011;22847;42.654;23.370;2024-03-23T01:12:57;11.88;;;6.30;;
36931;SDS011;22847;42.654;23.370;2024-03-23T01:15:22;11.02;;;5.47;;
36931;SDS011;22847;42.654;23.370;2024-03-23T01:17:48;10.32;;;5.88;;
36931;SDS011;22847;42.654;23.370;2024-03-23T01:20:13;9.55;;;6.00;;
36931;SDS011;22847;42.654;23.370;2024-03-23T01:22:39;13.27;;;6.45;;
36931;SDS011;22847;42.654;23.370;2024-03-23T01:25:05;10.55;;;5.75;;
36931;SDS011;22847;42.654;23.370;2024-03-23T01:27:30;14.80;;;5.60;;
36931;SDS011;22847;42.654;23.370;2024-03-23T01:29:56;14.40;;;5.88;;
36931;SDS011;22847;42.654;23.370;2024-03-23T01:32:21;10.20;;;5.88;;
36931;SDS011;22847;42.654;23.370;2024-03-23T01:34:47;11.32;;;5.63;;
36931;SDS011;22847;42.654;23.370;2024-03-23T01:37:12;9.48;;;5.95;;
36931;SDS011;22847;42.654;23.370;2024-03-23T01:39:38;11.43;;;5.68;;
36931;SDS011;22847;42.654;23.370;2024-03-23T01:42:04;12.27;;;5.88;;
36931;SDS011;22847;42.654;23.370;2024-03-23T01:44:29;9.65;;;5.32;;
36931;SDS011;22847;42.654;23.370;2024-03-23T01:46:55;12.20;;;5.85;;
36931;SDS011;22847;42.654;23.370;2024-03-23T01:49:20;11.75;;;5.60;;
36931;SDS011;22847;42.654;23.370;2024-03-23T01:51:46;8.52;;;5.32;;
36931;SDS011;22847;42.654;23.370;2024-03-23T01:54:11;12.30;;;5.13;;
36931;SDS011;22847;42.654;23.370;2024-03-23T01:56:37;12.90;;;5.70;;
36931;SDS011;22847;42.654;23.370;2024-03-23T01:59:03;8.57;;;5.63;;
36931;SDS011;22847;42.654;23.370;2024-03-23T02:01:30;11.27;;;5.65;;
36931;SDS011;22847;42.654;23.370;2024-03-23T02:03:56;9.50;;;5.28;;
36931;SDS011;22847;42.654;23.370;2024-03-23T02:06:21;13.30;;;5.30;;
36931;SDS011;22847;42.654;23.370;2024-03-23T02:08:49;9.35;;;5.03;;
36931;SDS011;22847;42.654;23.370;2024-03-23T02:11:14;9.02;;;5.38;;
36931;SDS011;22847;42.654;23.370;2024-03-23T02:13:40;11.63;;;5.15;;
36931;SDS011;22847;42.654;23.370;2024-03-23T02:16:05;15.75;;;6.00;;
36931;SDS011;22847;42.654;23.370;2024-03-23T02:18:31;11.27;;;5.47;;
36931;SDS011;22847;42.654;23.370;2024-03-23T02:20:57;9.70;;;5.32;;
36931;SDS011;22847;42.654;23.370;2024-03-23T02:23:23;10.55;;;5.00;;
36931;SDS011;22847;42.654;23.370;2024-03-23T02:25:49;9.60;;;5.03;;
36931;SDS011;22847;42.654;23.370;2024-03-23T02:28:15;8.70;;;5.20;;
36931;SDS011;22847;42.654;23.370;2024-03-23T02:30:40;10.07;;;5.00;;
36931;SDS011;22847;42.654;23.370;2024-03-23T02:33:06;11.60;;;5.82;;
36931;SDS011;22847;42.654;23.370;2024-03-23T02:35:31;9.30;;;5.43;;
36931;SDS011;22847;42.654;23.370;2024-03-23T02:37:57;12.07;;;6.63;;
36931;SDS011;22847;42.654;23.370;2024-03-23T02:40:23;13.77;;;6.28;;
36931;SDS011;22847;42.654;23.370;2024-03-23T02:42:49;12.27;;;6.63;;
36931;SDS011;22847;42.654;23.370;2024-03-23T02:45:15;12.55;;;6.07;;
36931;SDS011;22847;42.654;23.370;2024-03-23T02:47:40;16.30;;;7.00;;
36931;SDS011;22847;42.654;23.370;2024-03-23T02:50:06;10.00;;;5.60;;
36931;SDS011;22847;42.654;23.370;2024-03-23T02:52:32;13.63;;;6.25;;
36931;SDS011;22847;42.654;23.370;2024-03-23T02:54:58;12.35;;;5.38;;
36931;SDS011;22847;42.654;23.370;2024-03-23T02:57:23;8.93;;;5.28;;
36931;SDS011;22847;42.654;23.370;2024-03-23T02:59:49;8.75;;;5.25;;
36931;SDS011;22847;42.654;23.370;2024-03-23T03:02:15;10.10;;;5.72;;
36931;SDS011;22847;42.654;23.370;2024-03-23T03:04:41;12.63;;;5.47;;
36931;SDS011;22847;42.654;23.370;2024-03-23T03:07:07;13.90;;;6.43;;
36931;SDS011;22847;42.654;23.370;2024-03-23T03:09:33;12.38;;;6.32;;
36931;SDS011;22847;42.654;23.370;2024-03-23T03:12:00;12.73;;;6.18;;
36931;SDS011;22847;42.654;23.370;2024-03-23T03:14:28;12.07;;;6.55;;
36931;SDS011;22847;42.654;23.370;2024-03-23T03:16:54;13.55;;;5.90;;
36931;SDS011;22847;42.654;23.370;2024-03-23T03:19:19;11.70;;;6.47;;
36931;SDS011;22847;42.654;23.370;2024-03-23T03:21:45;10.48;;;5.93;;
36931;SDS011;22847;42.654;23.370;2024-03-23T03:24:10;14.20;;;5.60;;
36931;SDS011;22847;42.654;23.370;2024-03-23T03:26:36;11.95;;;5.85;;
36931;SDS011;22847;42.654;23.370;2024-03-23T03:29:02;13.82;;;5.95;;
36931;SDS011;22847;42.654;23.370;2024-03-23T03:31:27;11.57;;;6.22;;
36931;SDS011;22847;42.654;23.370;2024-03-23T03:33:53;10.15;;;5.90;;
36931;SDS011;22847;42.654;23.370;2024-03-23T03:36:18;16.35;;;5.60;;
36931;SDS011;22847;42.654;23.370;2024-03-23T03:38:44;12.43;;;6.03;;
36931;SDS011;22847;42.654;23.370;2024-03-23T03:41:10;15.75;;;5.60;;
36931;SDS011;22847;42.654;23.370;2024-03-23T03:43:36;10.77;;;5.68;;
36931;SDS011;22847;42.654;23.370;2024-03-23T03:46:01;12.43;;;5.90;;
36931;SDS011;22847;42.654;23.370;2024-03-23T03:48:27;9.68;;;5.03;;
36931;SDS011;22847;42.654;23.370;2024-03-23T03:50:53;12.80;;;5.75;;
36931;SDS011;22847;42.654;23.370;2024-03-23T03:53:19;11.13;;;5.45;;
36931;SDS011;22847;42.654;23.370;2024-03-23T03:55:45;12.00;;;5.65;;
36931;SDS011;22847;42.654;23.370;2024-03-23T03:58:10;13.30;;;5.97;;
36931;SDS011;22847;42.654;23.370;2024-03-23T04:00:36;18.20;;;6.38;;
36931;SDS011;22847;42.654;23.370;2024-03-23T04:03:02;11.20;;;6.25;;
36931;SDS011;22847;42.654;23.370;2024-03-23T04:05:28;12.30;;;5.90;;
36931;SDS011;22847;42.654;23.370;2024-03-23T04:07:53;13.32;;;6.15;;
36931;SDS011;22847;42.654;23.370;2024-03-23T04:10:19;16.75;;;6.47;;
36931;SDS011;22847;42.654;23.370;2024-03-23T04:12:45;13.73;;;7.03;;
36931;SDS011;22847;42.654;23.370;2024-03-23T04:15:11;11.27;;;5.70;;
36931;SDS011;22847;42.654;23.370;2024-03-23T04:17:36;16.98;;;6.97;;
36931;SDS011;22847;42.654;23.370;2024-03-23T04:20:02;10.60;;;6.38;;
36931;SDS011;22847;42.654;23.370;2024-03-23T04:22:30;12.98;;;6.50;;
36931;SDS011;22847;42.654;23.370;2024-03-23T04:24:56;13.57;;;7.40;;
36931;SDS011;22847;42.654;23.370;2024-03-23T04:27:22;13.07;;;6.82;;
36931;SDS011;22847;42.654;23.370;2024-03-23T04:29:49;14.77;;;7.47;;
36931;SDS011;22847;42.654;23.370;2024-03-23T04:32:18;14.80;;;6.22;;
36931;SDS011;22847;42.654;23.370;2024-03-23T04:34:44;12.45;;;6.38;;
36931;SDS011;22847;42.654;23.370;2024-03-23T04:37:10;9.90;;;6.18;;
36931;SDS011;22847;42.654;23.370;2024-03-23T04:39:36;13.93;;;6.72;;
36931;SDS011;22847;42.654;23.370;2024-03-23T04:42:02;14.93;;;7.20;;
36931;SDS011;22847;42.654;23.370;2024-03-23T04:44:28;9.73;;;5.57;;
36931;SDS011;22847;42.654;23.370;2024-03-23T04:46:54;9.85;;;5.30;;
36931;SDS011;22847;42.654;23.370;2024-03-23T04:49:20;9.40;;;6.10;;
36931;SDS011;22847;42.654;23.370;2024-03-23T04:51:45;16.98;;;6.30;;
36931;SDS011;22847;42.654;23.370;2024-03-23T04:54:11;8.48;;;5.47;;
36931;SDS011;22847;42.654;23.370;2024-03-23T04:56:37;10.75;;;5.43;;
36931;SDS011;22847;42.654;23.370;2024-03-23T04:59:03;12.00;;;6.18;;
36931;SDS011;22847;42.654;23.370;2024-03-23T05:01:30;14.40;;;6.07;;
36931;SDS011;22847;42.654;23.370;2024-03-23T05:03:58;11.65;;;5.15;;
36931;SDS011;22847;42.654;23.370;2024-03-23T05:06:24;10.15;;;5.28;;
36931;SDS011;22847;42.654;23.370;2024-03-23T05:08:50;14.85;;;6.25;;
36931;SDS011;22847;42.654;23.370;2024-03-23T05:11:19;12.05;;;5.47;;
36931;SDS011;22847;42.654;23.370;2024-03-23T05:13:45;13.18;;;5.72;;
36931;SDS011;22847;42.654;23.370;2024-03-23T05:16:11;11.88;;;5.63;;
36931;SDS011;22847;42.654;23.370;2024-03-23T05:18:36;13.02;;;5.78;;
36931;SDS011;22847;42.654;23.370;2024-03-23T05:21:02;12.40;;;5.50;;
36931;SDS011;22847;42.654;23.370;2024-03-23T05:23:28;10.25;;;6.03;;
36931;SDS011;22847;42.654;23.370;2024-03-23T05:25:54;11.52;;;6.75;;
36931;SDS011;22847;42.654;23.370;2024-03-23T05:28:20;11.93;;;7.07;;
36931;SDS011;22847;42.654;23.370;2024-03-23T05:30:55;9.82;;;6.25;;
36931;SDS011;22847;42.654;23.370;2024-03-23T05:33:22;13.35;;;6.88;;
36931;SDS011;22847;42.654;23.370;2024-03-23T05:35:55;15.10;;;6.68;;
36931;SDS011;22847;42.654;23.370;2024-03-23T05:38:27;19.60;;;7.07;;
36931;SDS011;22847;42.654;23.370;2024-03-23T05:40:54;13.27;;;7.40;;
36931;SDS011;22847;42.654;23.370;2024-03-23T05:43:20;13.70;;;7.93;;
36931;SDS011;22847;42.654;23.370;2024-03-23T05:45:52;19.42;;;8.27;;
36931;SDS011;22847;42.654;23.370;2024-03-23T05:48:21;16.77;;;9.00;;
36931;SDS011;22847;42.654;23.370;2024-03-23T05:50:47;13.18;;;7.68;;
36931;SDS011;22847;42.654;23.370;2024-03-23T05:53:16;12.50;;;7.47;;
36931;SDS011;22847;42.654;23.370;2024-03-23T05:55:43;15.88;;;8.15;;
36931;SDS011;22847;42.654;23.370;2024-03-23T05:58:09;16.77;;;9.02;;
36931;SDS011;22847;42.654;23.370;2024-03-23T06:00:35;11.52;;;6.28;;
36931;SDS011;22847;42.654;23.370;2024-03-23T06:03:01;9.23;;;6.18;;
36931;SDS011;22847;42.654;23.370;2024-03-23T06:05:26;12.45;;;6.70;;
36931;SDS011;22847;42.654;23.370;2024-03-23T06:07:52;11.10;;;6.28;;
36931;SDS011;22847;42.654;23.370;2024-03-23T06:10:18;12.80;;;6.75;;
36931;SDS011;22847;42.654;23.370;2024-03-23T06:12:43;14.77;;;7.63;;
36931;SDS011;22847;42.654;23.370;2024-03-23T06:15:10;14.57;;;8.50;;
36931;SDS011;22847;42.654;23.370;2024-03-23T06:17:36;18.63;;;8.88;;
36931;SDS011;22847;42.654;23.370;2024-03-23T06:20:02;19.30;;;9.75;;
36931;SDS011;22847;42.654;23.370;2024-03-23T06:22:28;17.45;;;9.35;;
36931;SDS011;22847;42.654;23.370;2024-03-23T06:24:54;14.40;;;7.95;;
36931;SDS011;22847;42.654;23.370;2024-03-23T06:27:19;19.65;;;10.18;;
36931;SDS011;22847;42.654;23.370;2024-03-23T06:29:45;13.60;;;8.20;;
36931;SDS011;22847;42.654;23.370;2024-03-23T06:32:10;17.85;;;8.57;;
36931;SDS011;22847;42.654;23.370;2024-03-23T06:34:36;14.77;;;8.13;;
36931;SDS011;22847;42.654;23.370;2024-03-23T06:37:01;14.75;;;7.43;;
36931;SDS011;22847;42.654;23.370;2024-03-23T06:39:30;17.90;;;7.78;;
36931;SDS011;22847;42.654;23.370;2024-03-23T06:41:55;13.55;;;6.68;;
36931;SDS011;22847;42.654;23.370;2024-03-23T06:44:21;14.05;;;6.75;;
36931;SDS011;22847;42.654;23.370;2024-03-23T06:46:47;14.75;;;6.93;;
36931;SDS011;22847;42.654;23.370;2024-03-23T06:49:14;20.25;;;9.68;;
36931;SDS011;22847;42.654;23.370;2024-03-23T06:51:40;17.38;;;7.05;;
36931;SDS011;22847;42.654;23.370;2024-03-23T06:54:05;14.55;;;7.55;;
36931;SDS011;22847;42.654;23.370;2024-03-23T06:56:31;12.15;;;7.57;;
36931;SDS011;22847;42.654;23.370;2024-03-23T06:58:57;19.80;;;8.32;;
36931;SDS011;22847;42.654;23.370;2024-03-23T07:01:23;15.50;;;9.18;;
36931;SDS011;22847;42.654;23.370;2024-03-23T07:03:48;21.13;;;9.25;;
36931;SDS011;22847;42.654;23.370;2024-03-23T07:06:14;16.60;;;9.70;;
36931;SDS011;22847;42.654;23.370;2024-03-23T07:08:39;18.45;;;9.07;;
36931;SDS011;22847;42.654;23.370;2024-03-23T07:11:04;22.63;;;9.77;;
36931;SDS011;22847;42.654;23.370;2024-03-23T07:13:30;18.02;;;10.52;;
36931;SDS011;22847;42.654;23.370;2024-03-23T07:15:56;17.35;;;9.25;;
36931;SDS011;22847;42.654;23.370;2024-03-23T07:18:22;14.80;;;8.98;;
36931;SDS011;22847;42.654;23.370;2024-03-23T07:20:54;17.05;;;9.80;;
36931;SDS011;22847;42.654;23.370;2024-03-23T07:23:21;18.88;;;9.77;;
36931;SDS011;22847;42.654;23.370;2024-03-23T07:25:57;25.65;;;11.20;;
36931;SDS011;22847;42.654;23.370;2024-03-23T07:28:23;25.55;;;9.32;;
36931;SDS011;22847;42.654;23.370;2024-03-23T07:30:48;21.90;;;10.13;;
36931;SDS011;22847;42.654;23.370;2024-03-23T07:33:23;22.58;;;10.18;;
36931;SDS011;22847;42.654;23.370;2024-03-23T07:35:49;17.30;;;9.95;;
36931;SDS011;22847;42.654;23.370;2024-03-23T07:38:14;21.30;;;10.90;;
36931;SDS011;22847;42.654;23.370;2024-03-23T07:40:40;22.80;;;10.77;;
36931;SDS011;22847;42.654;23.370;2024-03-23T07:43:05;25.52;;;10.68;;
36931;SDS011;22847;42.654;23.370;2024-03-23T07:45:31;19.83;;;10.73;;
36931;SDS011;22847;42.654;23.370;2024-03-23T07:47:56;21.10;;;11.23;;
36931;SDS011;22847;42.654;23.370;2024-03-23T07:50:21;22.02;;;10.85;;
36931;SDS011;22847;42.654;23.370;2024-03-23T07:52:47;16.27;;;10.20;;
36931;SDS011;22847;42.654;23.370;2024-03-23T07:55:12;18.33;;;9.88;;
36931;SDS011;22847;42.654;23.370;2024-03-23T07:57:38;21.73;;;11.85;;
36931;SDS011;22847;42.654;23.370;2024-03-23T08:00:04;18.52;;;10.40;;
36931;SDS011;22847;42.654;23.370;2024-03-23T08:02:31;19.55;;;10.10;;
36931;SDS011;22847;42.654;23.370;2024-03-23T08:04:56;19.30;;;10.75;;
36931;SDS011;22847;42.654;23.370;2024-03-23T08:07:22;24.20;;;11.05;;
36931;SDS011;22847;42.654;23.370;2024-03-23T08:09:47;21.60;;;10.80;;
36931;SDS011;22847;42.654;23.370;2024-03-23T08:12:13;18.77;;;10.52;;
36931;SDS011;22847;42.654;23.370;2024-03-23T08:14:39;19.92;;;12.23;;
36931;SDS011;22847;42.654;23.370;2024-03-23T08:17:04;27.92;;;12.25;;
36931;SDS011;22847;42.654;23.370;2024-03-23T08:19:30;24.63;;;11.07;;
36931;SDS011;22847;42.654;23.370;2024-03-23T08:21:55;22.73;;;11.20;;
36931;SDS011;22847;42.654;23.370;2024-03-23T08:24:21;20.80;;;11.02;;
36931;SDS011;22847;42.654;23.370;2024-03-23T08:26:46;18.35;;;10.63;;
36931;SDS011;22847;42.654;23.370;2024-03-23T08:29:12;17.50;;;10.65;;
36931;SDS011;22847;42.654;23.370;2024-03-23T08:31:37;17.75;;;10.30;;
36931;SDS011;22847;42.654;23.370;2024-03-23T08:34:03;22.45;;;10.60;;
36931;SDS011;22847;42.654;23.370;2024-03-23T08:36:28;22.48;;;10.43;;
36931;SDS011;22847;42.654;23.370;2024-03-23T08:38:55;17.88;;;9.70;;
36931;SDS011;22847;42.654;23.370;2024-03-23T08:41:21;27.95;;;10.80;;
36931;SDS011;22847;42.654;23.370;2024-03-23T08:43:46;22.95;;;10.52;;
36931;SDS011;22847;42.654;23.370;2024-03-23T08:46:13;17.20;;;10.40;;
36931;SDS011;22847;42.654;23.370;2024-03-23T08:48:43;17.73;;;10.85;;
36931;SDS011;22847;42.654;23.370;2024-03-23T08:51:11;16.80;;;10.48;;
36931;SDS011;22847;42.654;23.370;2024-03-23T08:53:38;21.23;;;10.38;;
36931;SDS011;22847;42.654;23.370;2024-03-23T08:56:05;21.33;;;10.68;;
36931;SDS011;22847;42.654;23.370;2024-03-23T08:58:32;17.15;;;10.38;;
36931;SDS011;22847;42.654;23.370;2024-03-23T09:01:08;20.60;;;10.65;;
36931;SDS011;22847;42.654;23.370;2024-03-23T09:03:35;22.77;;;11.23;;
36931;SDS011;22847;42.654;23.370;2024-03-23T09:06:02;23.73;;;11.23;;
36931;SDS011;22847;42.654;23.370;2024-03-23T09:08:32;24.08;;;11.27;;
36931;SDS011;22847;42.654;23.370;2024-03-23T09:10:57;26.48;;;11.65;;
36931;SDS011;22847;42.654;23.370;2024-03-23T09:13:23;28.92;;;10.98;;
36931;SDS011;22847;42.654;23.370;2024-03-23T09:15:52;22.48;;;10.88;;
36931;SDS011;22847;42.654;23.370;2024-03-23T09:18:22;27.70;;;11.38;;
36931;SDS011;22847;42.654;23.370;2024-03-23T09:20:49;25.30;;;10.68;;
36931;SDS011;22847;42.654;23.370;2024-03-23T09:23:14;21.10;;;11.07;;
36931;SDS011;22847;42.654;23.370;2024-03-23T09:25:40;21.67;;;10.02;;
36931;SDS011;22847;42.654;23.370;2024-03-23T09:28:06;17.40;;;10.48;;
36931;SDS011;22847;42.654;23.370;2024-03-23T09:30:34;17.98;;;8.98;;
36931;SDS011;22847;42.654;23.370;2024-03-23T09:33:00;23.13;;;9.88;;
36931;SDS011;22847;42.654;23.370;2024-03-23T09:35:26;18.40;;;9.95;;
36931;SDS011;22847;42.654;23.370;2024-03-23T09:37:52;16.85;;;9.43;;
36931;SDS011;22847;42.654;23.370;2024-03-23T09:40:17;17.40;;;9.13;;
36931;SDS011;22847;42.654;23.370;2024-03-23T09:42:43;17.15;;;8.27;;
36931;SDS011;22847;42.654;23.370;2024-03-23T09:45:21;22.88;;;9.23;;
36931;SDS011;22847;42.654;23.370;2024-03-23T09:47:51;15.10;;;8.70;;
36931;SDS011;22847;42.654;23.370;2024-03-23T09:50:17;18.05;;;8.55;;
36931;SDS011;22847;42.654;23.370;2024-03-23T09:52:43;14.20;;;8.55;;
36931;SDS011;22847;42.654;23.370;2024-03-23T09:55:10;14.68;;;8.77;;
36931;SDS011;22847;42.654;23.370;2024-03-23T09:57:36;21.65;;;9.15;;
36931;SDS011;22847;42.654;23.370;2024-03-23T10:00:02;22.33;;;10.70;;
36931;SDS011;22847;42.654;23.370;2024-03-23T10:02:28;18.25;;;8.93;;
36931;SDS011;22847;42.654;23.370;2024-03-23T10:04:55;23.25;;;9.63;;
36931;SDS011;22847;42.654;23.370;2024-03-23T10:07:22;18.98;;;8.48;;
36931;SDS011;22847;42.654;23.370;2024-03-23T10:09:48;20.88;;;9.90;;
36931;SDS011;22847;42.654;23.370;2024-03-23T10:12:16;18.98;;;9.02;;
36931;SDS011;22847;42.654;23.370;2024-03-23T10:14:43;15.35;;;8.38;;
36931;SDS011;22847;42.654;23.370;2024-03-23T10:17:16;13.88;;;7.65;;
36931;SDS011;22847;42.654;23.370;2024-03-23T10:19:45;15.20;;;7.18;;
36931;SDS011;22847;42.654;23.370;2024-03-23T10:22:13;10.88;;;7.03;;
36931;SDS011;22847;42.654;23.370;2024-03-23T10:24:39;12.13;;;6.82;;
36931;SDS011;22847;42.654;23.370;2024-03-23T10:27:05;14.20;;;7.40;;
36931;SDS011;22847;42.654;23.370;2024-03-23T10:29:30;14.27;;;7.53;;
36931;SDS011;22847;42.654;23.370;2024-03-23T10:32:09;19.77;;;8.77;;
36931;SDS011;22847;42.654;23.370;2024-03-23T10:34:38;15.25;;;7.70;;
36931;SDS011;22847;42.654;23.370;2024-03-23T10:37:04;16.00;;;8.13;;
36931;SDS011;22847;42.654;23.370;2024-03-23T10:39:38;13.70;;;7.75;;
36931;SDS011;22847;42.654;23.370;2024-03-23T10:42:05;13.98;;;8.63;;
36931;SDS011;22847;42.654;23.370;2024-03-23T10:44:32;23.05;;;9.35;;
36931;SDS011;22847;42.654;23.370;2024-03-23T10:46:59;20.10;;;9.45;;
36931;SDS011;22847;42.654;23.370;2024-03-23T10:49:28;26.65;;;10.73;;
36931;SDS011;22847;42.654;23.370;2024-03-23T10:51:56;14.35;;;9.52;;
36931;SDS011;22847;42.654;23.370;2024-03-23T10:54:24;19.42;;;9.10;;
36931;SDS011;22847;42.654;23.370;2024-03-23T10:56:51;28.83;;;10.57;;
36931;SDS011;22847;42.654;23.370;2024-03-23T10:59:21;19.33;;;9.00;;
36931;SDS011;22847;42.654;23.370;2024-03-23T11:01:54;19.88;;;9.55;;
36931;SDS011;22847;42.654;23.370;2024-03-23T11:04:29;21.42;;;11.73;;
36931;SDS011;22847;42.654;23.370;2024-03-23T11:06:59;15.32;;;9.18;;
36931;SDS011;22847;42.654;23.370;2024-03-23T11:12:36;17.27;;;8.82;;
36931;SDS011;22847;42.654;23.370;2024-03-23T11:14:58;18.10;;;9.70;;
36931;SDS011;22847;42.654;23.370;2024-03-23T11:17:26;12.80;;;8.50;;
36931;SDS011;22847;42.654;23.370;2024-03-23T11:27:39;19.05;;;8.55;;
36931;SDS011;22847;42.654;23.370;2024-03-23T11:30:12;17.15;;;8.43;;
36931;SDS011;22847;42.654;23.370;2024-03-23T11:32:41;16.70;;;8.23;;
36931;SDS011;22847;42.654;23.370;2024-03-23T11:35:26;14.63;;;8.32;;
36931;SDS011;22847;42.654;23.370;2024-03-23T11:40:48;16.42;;;8.20;;
36931;SDS011;22847;42.654;23.370;2024-03-23T11:45:47;16.75;;;8.32;;
36931;SDS011;22847;42.654;23.370;2024-03-23T11:48:15;12.57;;;8.38;;
36931;SDS011;22847;42.654;23.370;2024-03-23T11:50:45;16.17;;;7.80;;
36931;SDS011;22847;42.654;23.370;2024-03-23T11:53:15;12.20;;;7.97;;
36931;SDS011;22847;42.654;23.370;2024-03-23T11:55:42;23.50;;;8.48;;
36931;SDS011;22847;42.654;23.370;2024-03-23T11:58:15;15.95;;;8.20;;
36931;SDS011;22847;42.654;23.370;2024-03-23T12:00:42;18.73;;;7.97;;
36931;SDS011;22847;42.654;23.370;2024-03-23T12:03:08;16.17;;;8.27;;
36931;SDS011;22847;42.654;23.370;2024-03-23T12:05:35;21.73;;;9.07;;
36931;SDS011;22847;42.654;23.370;2024-03-23T12:10:47;13.20;;;8.50;;
36931;SDS011;22847;42.654;23.370;2024-03-23T12:15:44;14.88;;;8.15;;
36931;SDS011;22847;42.654;23.370;2024-03-23T12:18:14;22.10;;;8.55;;
36931;SDS011;22847;42.654;23.370;2024-03-23T12:20:40;13.82;;;7.40;;
36931;SDS011;22847;42.654;23.370;2024-03-23T12:23:09;12.15;;;7.22;;
36931;SDS011;22847;42.654;23.370;2024-03-23T12:25:36;15.63;;;7.97;;
36931;SDS011;22847;42.654;23.370;2024-03-23T12:28:05;16.58;;;7.93;;
36931;SDS011;22847;42.654;23.370;2024-03-23T12:30:35;13.57;;;7.97;;
36931;SDS011;22847;42.654;23.370;2024-03-23T12:33:03;13.73;;;7.63;;
36931;SDS011;22847;42.654;23.370;2024-03-23T12:35:29;21.00;;;9.00;;
36931;SDS011;22847;42.654;23.370;2024-03-23T12:37:55;15.75;;;8.25;;
36931;SDS011;22847;42.654;23.370;2024-03-23T12:40:20;14.82;;;7.40;;
36931;SDS011;22847;42.654;23.370;2024-03-23T12:42:46;13.13;;;7.25;;
36931;SDS011;22847;42.654;23.370;2024-03-23T12:45:11;13.30;;;6.75;;
36931;SDS011;22847;42.654;23.370;2024-03-23T12:47:37;22.17;;;10.35;;
36931;SDS011;22847;42.654;23.370;2024-03-23T12:50:02;13.48;;;7.47;;
36931;SDS011;22847;42.654;23.370;2024-03-23T12:52:28;17.50;;;6.38;;
36931;SDS011;22847;42.654;23.370;2024-03-23T12:54:57;17.50;;;6.20;;
36931;SDS011;22847;42.654;23.370;2024-03-23T12:57:26;12.20;;;6.28;;
36931;SDS011;22847;42.654;23.370;2024-03-23T12:59:52;10.35;;;4.55;;
36931;SDS011;22847;42.654;23.370;2024-03-23T13:02:19;17.85;;;5.68;;
36931;SDS011;22847;42.654;23.370;2024-03-23T13:04:54;8.07;;;4.97;;
36931;SDS011;22847;42.654;23.370;2024-03-23T13:07:21;10.77;;;4.60;;
36931;SDS011;22847;42.654;23.370;2024-03-23T13:09:49;7.18;;;4.60;;
36931;SDS011;22847;42.654;23.370;2024-03-23T13:12:17;8.93;;;4.90;;
36931;SDS011;22847;42.654;23.370;2024-03-23T13:14:43;6.30;;;4.03;;
36931;SDS011;22847;42.654;23.370;2024-03-23T13:17:09;5.65;;;3.60;;
36931;SDS011;22847;42.654;23.370;2024-03-23T13:19:35;4.50;;;3.28;;
36931;SDS011;22847;42.654;23.370;2024-03-23T13:22:01;6.00;;;4.20;;
36931;SDS011;22847;42.654;23.370;2024-03-23T13:24:45;9.23;;;4.38;;
36931;SDS011;22847;42.654;23.370;2024-03-23T13:27:10;8.27;;;3.85;;
36931;SDS011;22847;42.654;23.370;2024-03-23T13:29:36;10.27;;;4.25;;
36931;SDS011;22847;42.654;23.370;2024-03-23T13:32:05;6.80;;;4.40;;
36931;SDS011;22847;42.654;23.370;2024-03-23T13:34:31;8.02;;;4.07;;
36931;SDS011;22847;42.654;23.370;2024-03-23T13:36:58;6.28;;;3.25;;
36931;SDS011;22847;42.654;23.370;2024-03-23T13:39:24;14.13;;;4.68;;
36931;SDS011;22847;42.654;23.370;2024-03-23T13:41:50;7.38;;;3.70;;
36931;SDS011;22847;42.654;23.370;2024-03-23T13:44:16;4.35;;;3.08;;
36931;SDS011;22847;42.654;23.370;2024-03-23T13:46:41;8.38;;;3.50;;
36931;SDS011;22847;42.654;23.370;2024-03-23T13:49:08;8.43;;;3.65;;
36931;SDS011;22847;42.654;23.370;2024-03-23T13:51:49;7.30;;;3.40;;
36931;SDS011;22847;42.654;23.370;2024-03-23T13:54:14;5.68;;;3.13;;
36931;SDS011;22847;42.654;23.370;2024-03-23T13:56:39;7.00;;;2.60;;
36931;SDS011;22847;42.654;23.370;2024-03-23T13:59:05;2.05;;;1.80;;
36931;SDS011;22847;42.654;23.370;2024-03-23T14:01:30;4.57;;;2.35;;
36931;SDS011;22847;42.654;23.370;2024-03-23T14:03:56;2.42;;;2.00;;
36931;SDS011;22847;42.654;23.370;2024-03-23T14:06:22;8.02;;;3.67;;
36931;SDS011;22847;42.654;23.370;2024-03-23T14:08:49;10.70;;;4.65;;
36931;SDS011;22847;42.654;23.370;2024-03-23T14:11:14;10.50;;;4.35;;
36931;SDS011;22847;42.654;23.370;2024-03-23T14:13:40;7.32;;;3.90;;
36931;SDS011;22847;42.654;23.370;2024-03-23T14:16:05;6.60;;;4.03;;
36931;SDS011;22847;42.654;23.370;2024-03-23T14:18:31;5.93;;;3.50;;
36931;SDS011;22847;42.654;23.370;2024-03-23T14:21:00;4.35;;;2.92;;
36931;SDS011;22847;42.654;23.370;2024-03-23T14:23:26;6.90;;;3.00;;
36931;SDS011;22847;42.654;23.370;2024-03-23T14:25:54;7.07;;;3.80;;
36931;SDS011;22847;42.654;23.370;2024-03-23T14:28:21;7.10;;;2.13;;
36931;SDS011;22847;42.654;23.370;2024-03-23T14:30:47;2.00;;;1.27;;
36931;SDS011;22847;42.654;23.370;2024-03-23T14:33:14;3.28;;;1.80;;
36931;SDS011;22847;42.654;23.370;2024-03-23T14:35:40;9.07;;;5.15;;
36931;SDS011;22847;42.654;23.370;2024-03-23T14:38:06;3.88;;;1.50;;
36931;SDS011;22847;42.654;23.370;2024-03-23T14:40:31;3.05;;;1.60;;
36931;SDS011;22847;42.654;23.370;2024-03-23T14:42:57;3.17;;;1.38;;
36931;SDS011;22847;42.654;23.370;2024-03-23T14:45:22;4.60;;;2.80;;
36931;SDS011;22847;42.654;23.370;2024-03-23T14:47:49;2.08;;;1.65;;
36931;SDS011;22847;42.654;23.370;2024-03-23T14:50:18;3.10;;;1.80;;
36931;SDS011;22847;42.654;23.370;2024-03-23T14:52:44;1.77;;;1.42;;
36931;SDS011;22847;42.654;23.370;2024-03-23T14:55:12;4.65;;;1.75;;
36931;SDS011;22847;42.654;23.370;2024-03-23T14:57:38;6.03;;;1.63;;
36931;SDS011;22847;42.654;23.370;2024-03-23T15:00:07;5.25;;;1.90;;
36931;SDS011;22847;42.654;23.370;2024-03-23T15:02:36;4.32;;;1.83;;
36931;SDS011;22847;42.654;23.370;2024-03-23T15:05:05;3.75;;;2.00;;
36931;SDS011;22847;42.654;23.370;2024-03-23T15:07:34;11.95;;;5.18;;
36931;SDS011;22847;42.654;23.370;2024-03-23T15:10:04;2.40;;;1.65;;
36931;SDS011;22847;42.654;23.370;2024-03-23T15:12:30;1.83;;;1.50;;
36931;SDS011;22847;42.654;23.370;2024-03-23T15:14:58;5.20;;;2.30;;
36931;SDS011;22847;42.654;23.370;2024-03-23T15:17:24;3.38;;;1.75;;
36931;SDS011;22847;42.654;23.370;2024-03-23T15:19:49;9.38;;;2.13;;
36931;SDS011;22847;42.654;23.370;2024-03-23T15:22:14;4.32;;;2.30;;
36931;SDS011;22847;42.654;23.370;2024-03-23T15:24:40;5.88;;;1.90;;
36931;SDS011;22847;42.654;23.370;2024-03-23T15:27:05;2.65;;;1.75;;
36931;SDS011;22847;42.654;23.370;2024-03-23T15:29:33;5.82;;;2.45;;
36931;SDS011;22847;42.654;23.370;2024-03-23T15:31:59;9.27;;;3.45;;
36931;SDS011;22847;42.654;23.370;2024-03-23T15:34:24;3.80;;;1.90;;
36931;SDS011;22847;42.654;23.370;2024-03-23T15:36:50;2.40;;;1.60;;